createdAt,value
2022-11-09T00:00:25.083Z,75.50
2022-11-09T00:00:56.562Z,75.40
2022-11-09T00:01:28.056Z,75.50
2022-11-09T00:01:59.527Z,75.50
2022-11-09T00:02:30.998Z,75.40
2022-11-09T00:03:02.475Z,75.50
2022-11-09T00:03:34.000Z,75.40
2022-11-09T00:04:05.529Z,75.40
2022-11-09T00:04:36.991Z,75.40
2022-11-09T00:05:08.478Z,75.40
2022-11-09T00:05:39.940Z,75.40
2022-11-09T00:06:11.411Z,75.50
2022-11-09T00:06:42.904Z,75.40
2022-11-09T00:07:14.500Z,75.40
2022-11-09T00:07:46.080Z,75.40
2022-11-09T00:08:17.564Z,75.40
2022-11-09T00:08:49.047Z,75.50
2022-11-09T00:09:20.580Z,75.40
2022-11-09T00:09:52.219Z,75.50
2022-11-09T00:10:23.752Z,75.40
2022-11-09T00:10:55.248Z,75.40
2022-11-09T00:11:26.748Z,75.40
2022-11-09T00:12:07.233Z,75.40
2022-11-09T00:12:38.691Z,75.40
2022-11-09T00:13:10.161Z,75.40
2022-11-09T00:13:41.641Z,75.40
2022-11-09T00:14:13.109Z,75.40
2022-11-09T00:14:44.615Z,75.30
2022-11-09T00:15:16.082Z,75.30
2022-11-09T00:15:47.570Z,75.30
2022-11-09T00:16:19.033Z,75.30
2022-11-09T00:16:50.518Z,75.40
2022-11-09T00:17:21.988Z,75.40
2022-11-09T00:17:53.442Z,75.30
2022-11-09T00:18:24.895Z,75.30
2022-11-09T00:18:56.370Z,75.40
2022-11-09T00:19:27.831Z,75.40
2022-11-09T00:19:59.309Z,75.40
2022-11-09T00:20:30.782Z,75.50
2022-11-09T00:21:02.240Z,75.40
2022-11-09T00:21:33.720Z,75.40
2022-11-09T00:22:05.192Z,75.40
2022-11-09T00:22:36.675Z,75.40
2022-11-09T00:23:08.158Z,75.50
2022-11-09T00:23:39.619Z,75.40
2022-11-09T00:24:11.081Z,75.40
2022-11-09T00:24:42.539Z,75.50
2022-11-09T00:25:14.007Z,75.40
2022-11-09T00:25:45.520Z,75.40
2022-11-09T00:26:16.985Z,75.40
2022-11-09T00:26:48.481Z,75.40
2022-11-09T00:27:19.967Z,75.40
2022-11-09T00:27:51.435Z,75.50
2022-11-09T00:28:22.902Z,75.50
2022-11-09T00:28:54.428Z,75.60
2022-11-09T00:29:25.907Z,75.50
2022-11-09T00:29:57.388Z,75.50
2022-11-09T00:30:28.869Z,75.50
2022-11-09T00:31:00.338Z,75.50
2022-11-09T00:31:31.834Z,75.50
2022-11-09T00:32:03.313Z,75.50
2022-11-09T00:32:34.775Z,75.50
2022-11-09T00:33:06.245Z,75.50
2022-11-09T00:33:37.706Z,75.50
2022-11-09T00:34:09.167Z,75.50
2022-11-09T00:34:40.633Z,75.50
2022-11-09T00:35:12.109Z,75.50
2022-11-09T00:35:43.605Z,75.50
2022-11-09T00:36:15.073Z,75.50
2022-11-09T00:36:46.558Z,75.60
2022-11-09T00:37:18.088Z,75.50
2022-11-09T00:37:49.607Z,75.60
2022-11-09T00:38:21.128Z,75.60
2022-11-09T00:38:52.588Z,75.70
2022-11-09T00:39:24.062Z,75.60
2022-11-09T00:39:55.524Z,75.60
2022-11-09T00:40:26.993Z,75.70
2022-11-09T00:40:58.611Z,75.70
2022-11-09T00:41:30.079Z,75.60
2022-11-09T00:42:01.553Z,76.50
2022-11-09T00:42:33.024Z,75.70
2022-11-09T00:43:04.508Z,75.70
2022-11-09T00:43:35.976Z,75.70
2022-11-09T00:44:07.675Z,75.80
2022-11-09T00:44:39.354Z,75.80
2022-11-09T00:45:10.825Z,75.70
2022-11-09T00:45:42.295Z,75.80
2022-11-09T00:46:13.760Z,75.70
2022-11-09T00:46:45.327Z,75.70
2022-11-09T00:47:16.800Z,75.80
2022-11-09T00:47:48.268Z,75.70
2022-11-09T00:48:19.758Z,75.70
2022-11-09T00:48:51.221Z,75.70
2022-11-09T00:49:22.687Z,75.70
2022-11-09T00:49:54.156Z,75.70
2022-11-09T00:50:25.627Z,75.70
2022-11-09T00:50:57.122Z,75.60
2022-11-09T00:51:28.584Z,75.60
2022-11-09T00:52:00.043Z,75.70
2022-11-09T00:52:31.506Z,75.60
2022-11-09T00:53:02.991Z,75.50
2022-11-09T00:53:34.460Z,75.50
2022-11-09T00:54:05.928Z,75.60
2022-11-09T00:54:37.401Z,75.50
2022-11-09T00:55:08.867Z,75.50
2022-11-09T00:55:40.344Z,75.50
2022-11-09T00:56:11.819Z,75.50
2022-11-09T00:56:43.307Z,75.50
2022-11-09T00:57:14.781Z,75.50
2022-11-09T00:57:46.301Z,75.50
2022-11-09T00:58:17.765Z,75.50
2022-11-09T00:58:49.270Z,75.70
2022-11-09T00:59:20.740Z,75.60
2022-11-09T00:59:52.199Z,75.50
2022-11-09T01:00:23.671Z,75.50
2022-11-09T01:00:55.169Z,75.60
2022-11-09T01:01:26.755Z,75.50
2022-11-09T01:01:58.271Z,75.60
2022-11-09T01:02:29.744Z,75.60
2022-11-09T01:03:01.207Z,75.50
2022-11-09T01:03:32.688Z,75.60
2022-11-09T01:04:04.204Z,75.60
2022-11-09T01:04:35.682Z,75.60
2022-11-09T01:05:07.158Z,75.60
2022-11-09T01:05:38.651Z,75.60
2022-11-09T01:06:10.129Z,75.60
2022-11-09T01:06:41.672Z,75.60
2022-11-09T01:07:13.242Z,75.60
2022-11-09T01:07:44.738Z,75.60
2022-11-09T01:08:19.141Z,75.70
2022-11-09T01:08:50.653Z,76.40
2022-11-09T01:09:22.125Z,75.70
2022-11-09T01:09:53.602Z,75.70
2022-11-09T01:10:25.076Z,75.70
2022-11-09T01:10:56.545Z,75.70
2022-11-09T01:11:28.016Z,75.70
2022-11-09T01:11:59.480Z,75.60
2022-11-09T01:12:30.950Z,75.60
2022-11-09T01:13:02.461Z,75.60
2022-11-09T01:13:33.944Z,75.60
2022-11-09T01:14:05.434Z,75.70
2022-11-09T01:14:36.941Z,75.60
2022-11-09T01:15:08.445Z,75.60
2022-11-09T01:15:40.053Z,75.50
2022-11-09T01:16:11.518Z,75.50
2022-11-09T01:16:42.992Z,75.60
2022-11-09T01:17:14.473Z,75.70
2022-11-09T01:17:45.945Z,75.60
2022-11-09T01:18:17.403Z,75.60
2022-11-09T01:18:48.874Z,75.70
2022-11-09T01:19:20.352Z,75.70
2022-11-09T01:19:51.819Z,75.70
2022-11-09T01:20:23.301Z,75.70
2022-11-09T01:20:54.778Z,75.70
2022-11-09T01:21:26.244Z,75.70
2022-11-09T01:21:57.743Z,75.70
2022-11-09T01:22:29.208Z,75.70
2022-11-09T01:23:00.728Z,75.70
2022-11-09T01:23:32.249Z,75.70
2022-11-09T01:24:03.707Z,75.70
2022-11-09T01:24:35.168Z,75.80
2022-11-09T01:25:06.668Z,75.80
2022-11-09T01:25:38.137Z,75.70
2022-11-09T01:26:09.606Z,75.80
2022-11-09T01:26:41.076Z,75.80
2022-11-09T01:27:12.535Z,75.80
2022-11-09T01:27:44.012Z,75.90
2022-11-09T01:28:15.480Z,75.80
2022-11-09T01:28:46.960Z,75.80
2022-11-09T01:29:18.431Z,75.80
2022-11-09T01:29:49.907Z,75.80
2022-11-09T01:30:21.377Z,75.80
2022-11-09T01:30:52.843Z,75.80
2022-11-09T01:31:24.305Z,75.80
2022-11-09T01:31:55.767Z,75.80
2022-11-09T01:32:27.236Z,75.80
2022-11-09T01:32:58.700Z,75.90
2022-11-09T01:33:30.165Z,75.80
2022-11-09T01:34:01.632Z,75.80
2022-11-09T01:34:33.101Z,75.90
2022-11-09T01:35:04.595Z,75.80
2022-11-09T01:35:36.072Z,75.80
2022-11-09T01:36:07.562Z,75.80
2022-11-09T01:36:39.042Z,75.80
2022-11-09T01:37:10.534Z,75.90
2022-11-09T01:37:42.010Z,75.80
2022-11-09T01:38:13.509Z,76.00
2022-11-09T01:38:45.064Z,76.00
2022-11-09T01:39:16.543Z,75.90
2022-11-09T01:39:48.026Z,76.00
2022-11-09T01:40:19.493Z,76.70
2022-11-09T01:40:50.958Z,76.00
2022-11-09T01:41:22.423Z,75.90
2022-11-09T01:41:53.892Z,76.00
2022-11-09T01:42:25.364Z,75.90
2022-11-09T01:42:56.831Z,75.90
2022-11-09T01:43:28.287Z,75.80
2022-11-09T01:43:59.757Z,75.80
2022-11-09T01:44:31.269Z,75.90
2022-11-09T01:45:02.742Z,75.80
2022-11-09T01:45:34.214Z,75.90
2022-11-09T01:46:05.683Z,75.80
2022-11-09T01:46:37.160Z,75.80
2022-11-09T01:47:08.623Z,76.00
2022-11-09T01:47:40.101Z,75.80
2022-11-09T01:48:11.581Z,75.80
2022-11-09T01:48:43.052Z,75.90
2022-11-09T01:49:14.546Z,75.80
2022-11-09T01:49:46.018Z,75.80
2022-11-09T01:50:17.484Z,75.80
2022-11-09T01:50:48.958Z,75.80
2022-11-09T01:51:20.449Z,75.90
2022-11-09T01:51:51.916Z,75.80
2022-11-09T01:52:23.383Z,75.90
2022-11-09T01:52:54.850Z,75.80
2022-11-09T01:53:26.317Z,75.80
2022-11-09T01:53:57.787Z,75.80
2022-11-09T01:54:29.267Z,75.80
2022-11-09T01:55:00.758Z,75.80
2022-11-09T01:55:32.236Z,75.80
2022-11-09T01:56:03.697Z,75.80
2022-11-09T01:56:35.165Z,75.80
2022-11-09T01:57:06.632Z,75.90
2022-11-09T01:57:38.121Z,75.80
2022-11-09T01:58:09.591Z,75.90
2022-11-09T01:58:41.172Z,75.80
2022-11-09T01:59:12.631Z,75.80
2022-11-09T01:59:44.103Z,75.80
2022-11-09T02:00:15.566Z,75.80
2022-11-09T02:00:47.082Z,75.80
2022-11-09T02:01:18.730Z,75.80
2022-11-09T02:01:50.247Z,75.80
2022-11-09T02:02:21.715Z,75.80
2022-11-09T02:02:53.177Z,75.80
2022-11-09T02:03:24.635Z,75.80
2022-11-09T02:03:56.104Z,75.80
2022-11-09T02:04:27.613Z,75.80
2022-11-09T02:04:59.081Z,75.70
2022-11-09T02:05:30.565Z,75.80
2022-11-09T02:06:02.025Z,75.70
2022-11-09T02:06:33.509Z,75.70
2022-11-09T02:07:05.017Z,75.80
2022-11-09T02:07:36.512Z,75.70
2022-11-09T02:08:07.976Z,75.80
2022-11-09T02:08:39.465Z,75.70
2022-11-09T02:09:10.935Z,75.80
2022-11-09T02:09:42.401Z,75.80
2022-11-09T02:10:13.870Z,75.70
2022-11-09T02:10:45.332Z,75.80
2022-11-09T02:11:16.791Z,75.70
2022-11-09T02:11:48.264Z,75.80
2022-11-09T02:12:19.729Z,75.80
2022-11-09T02:12:51.203Z,75.80
2022-11-09T02:13:22.906Z,75.80
2022-11-09T02:13:54.555Z,75.80
2022-11-09T02:14:26.014Z,75.80
2022-11-09T02:14:57.476Z,75.80
2022-11-09T02:15:28.943Z,75.80
2022-11-09T02:16:00.417Z,75.90
2022-11-09T02:16:31.893Z,75.80
2022-11-09T02:17:03.362Z,76.60
2022-11-09T02:17:34.830Z,76.00
2022-11-09T02:18:06.301Z,75.80
2022-11-09T02:18:37.780Z,75.80
2022-11-09T02:19:09.244Z,76.00
2022-11-09T02:19:40.707Z,75.90
2022-11-09T02:20:12.322Z,75.90
2022-11-09T02:20:43.794Z,75.90
2022-11-09T02:21:15.295Z,75.90
2022-11-09T02:21:46.754Z,76.00
2022-11-09T02:22:18.225Z,76.00
2022-11-09T02:22:49.705Z,75.90
2022-11-09T02:23:21.559Z,75.90
2022-11-09T02:23:53.336Z,75.90
2022-11-09T02:24:24.801Z,75.90
2022-11-09T02:24:56.712Z,76.00
2022-11-09T02:25:28.245Z,75.90
2022-11-09T02:25:59.750Z,75.90
2022-11-09T02:26:31.310Z,75.90
2022-11-09T02:27:02.783Z,76.00
2022-11-09T02:27:34.244Z,75.90
2022-11-09T02:28:05.719Z,76.00
2022-11-09T02:28:37.230Z,75.90
2022-11-09T02:29:08.710Z,75.90
2022-11-09T02:29:40.181Z,75.90
2022-11-09T02:30:11.643Z,75.80
2022-11-09T02:30:43.112Z,75.80
2022-11-09T02:31:14.577Z,75.80
2022-11-09T02:31:46.046Z,75.90
2022-11-09T02:32:17.552Z,75.90
2022-11-09T02:32:49.047Z,75.80
2022-11-09T02:33:20.911Z,76.00
2022-11-09T02:33:52.620Z,75.80
2022-11-09T02:34:24.075Z,75.80
2022-11-09T02:34:55.552Z,75.80
2022-11-09T02:35:27.013Z,75.90
2022-11-09T02:35:58.553Z,75.80
2022-11-09T02:36:30.107Z,75.80
2022-11-09T02:37:01.579Z,75.90
2022-11-09T02:37:33.083Z,75.80
2022-11-09T02:38:04.543Z,75.80
2022-11-09T02:38:36.025Z,75.80
2022-11-09T02:39:07.598Z,75.80
2022-11-09T02:39:39.099Z,75.80
2022-11-09T02:40:10.569Z,75.80
2022-11-09T02:40:42.039Z,75.80
2022-11-09T02:41:13.523Z,75.80
2022-11-09T02:41:44.983Z,75.80
2022-11-09T02:42:21.147Z,75.80
2022-11-09T02:42:53.210Z,75.70
2022-11-09T02:43:24.700Z,75.70
2022-11-09T02:43:56.164Z,75.70
2022-11-09T02:44:27.653Z,75.80
2022-11-09T02:44:59.132Z,75.70
2022-11-09T02:45:30.700Z,75.80
2022-11-09T02:46:02.166Z,75.70
2022-11-09T02:46:33.626Z,75.70
2022-11-09T02:47:05.108Z,75.70
2022-11-09T02:47:36.577Z,75.80
2022-11-09T02:48:08.067Z,75.70
2022-11-09T02:48:39.623Z,75.80
2022-11-09T02:49:11.088Z,76.50
2022-11-09T02:49:42.555Z,75.80
2022-11-09T02:50:14.019Z,75.70
2022-11-09T02:50:45.495Z,75.80
2022-11-09T02:51:16.962Z,75.80
2022-11-09T02:51:48.440Z,75.70
2022-11-09T02:52:19.902Z,75.80
2022-11-09T02:52:51.469Z,75.80
2022-11-09T02:53:22.950Z,75.80
2022-11-09T02:53:54.412Z,75.80
2022-11-09T02:54:25.880Z,75.80
2022-11-09T02:54:57.392Z,75.80
2022-11-09T02:55:28.881Z,75.70
2022-11-09T02:56:00.358Z,75.70
2022-11-09T02:56:31.829Z,75.80
2022-11-09T02:57:03.314Z,75.70
2022-11-09T02:57:34.801Z,75.70
2022-11-09T02:58:06.270Z,75.70
2022-11-09T02:58:37.789Z,75.70
2022-11-09T02:59:09.258Z,75.80
2022-11-09T02:59:40.723Z,75.70
2022-11-09T03:00:12.188Z,75.80
2022-11-09T03:00:43.712Z,75.80
2022-11-09T03:01:15.336Z,75.80
2022-11-09T03:01:46.864Z,75.90
2022-11-09T03:02:18.348Z,75.80
2022-11-09T03:02:49.829Z,75.80
2022-11-09T03:03:21.517Z,75.80
2022-11-09T03:03:53.180Z,75.80
2022-11-09T03:04:24.660Z,75.80
2022-11-09T03:04:56.115Z,75.80
2022-11-09T03:05:27.581Z,75.80
2022-11-09T03:05:59.084Z,75.80
2022-11-09T03:06:30.594Z,75.80
2022-11-09T03:07:02.179Z,75.90
2022-11-09T03:07:33.672Z,75.90
2022-11-09T03:08:05.142Z,75.90
2022-11-09T03:08:36.609Z,76.00
2022-11-09T03:09:08.081Z,75.90
2022-11-09T03:09:39.543Z,75.90
2022-11-09T03:10:11.014Z,76.00
2022-11-09T03:10:42.482Z,76.00
2022-11-09T03:11:13.963Z,76.00
2022-11-09T03:11:45.459Z,76.00
2022-11-09T03:12:16.921Z,76.00
2022-11-09T03:12:48.388Z,76.00
2022-11-09T03:13:20.185Z,76.00
2022-11-09T03:13:51.820Z,76.00
2022-11-09T03:14:23.305Z,76.00
2022-11-09T03:14:54.778Z,76.00
2022-11-09T03:15:26.248Z,76.00
2022-11-09T03:15:57.725Z,76.00
2022-11-09T03:16:29.203Z,76.10
2022-11-09T03:17:00.664Z,76.00
2022-11-09T03:17:32.135Z,76.00
2022-11-09T03:18:03.595Z,76.10
2022-11-09T03:18:35.050Z,76.00
2022-11-09T03:19:06.510Z,76.00
2022-11-09T03:19:37.987Z,76.00
2022-11-09T03:20:09.454Z,76.10
2022-11-09T03:20:40.923Z,76.00
2022-11-09T03:21:12.379Z,76.00
2022-11-09T03:21:43.855Z,76.00
2022-11-09T03:22:15.323Z,75.90
2022-11-09T03:22:46.791Z,75.80
2022-11-09T03:23:18.623Z,75.80
2022-11-09T03:23:50.447Z,75.80
2022-11-09T03:24:21.904Z,75.90
2022-11-09T03:24:53.371Z,75.80
2022-11-09T03:25:24.827Z,76.00
2022-11-09T03:25:56.318Z,75.80
2022-11-09T03:26:27.789Z,75.80
2022-11-09T03:26:59.263Z,75.90
2022-11-09T03:27:30.733Z,75.80
2022-11-09T03:28:02.201Z,75.80
2022-11-09T03:28:33.669Z,75.90
2022-11-09T03:29:05.146Z,75.80
2022-11-09T03:29:36.623Z,75.80
2022-11-09T03:30:08.089Z,75.80
2022-11-09T03:30:39.555Z,75.80
2022-11-09T03:31:11.054Z,75.80
2022-11-09T03:31:42.529Z,75.80
2022-11-09T03:32:14.009Z,75.80
2022-11-09T03:32:50.304Z,75.80
2022-11-09T03:33:22.421Z,75.80
2022-11-09T03:33:54.045Z,75.80
2022-11-09T03:34:25.509Z,75.90
2022-11-09T03:34:56.976Z,75.90
2022-11-09T03:35:28.441Z,75.80
2022-11-09T03:35:59.972Z,75.90
2022-11-09T03:36:31.444Z,75.90
2022-11-09T03:37:02.919Z,76.00
2022-11-09T03:37:34.410Z,75.80
2022-11-09T03:38:06.029Z,75.90
2022-11-09T03:38:37.575Z,75.90
2022-11-09T03:39:09.047Z,75.90
2022-11-09T03:39:40.522Z,75.90
2022-11-09T03:40:12.003Z,75.80
2022-11-09T03:40:43.479Z,75.90
2022-11-09T03:41:15.002Z,75.80
2022-11-09T03:41:46.473Z,75.90
2022-11-09T03:42:17.939Z,75.90
2022-11-09T03:42:49.413Z,75.90
2022-11-09T03:43:21.238Z,76.00
2022-11-09T03:43:52.853Z,76.00
2022-11-09T03:44:24.318Z,75.90
2022-11-09T03:44:55.800Z,76.00
2022-11-09T03:45:27.285Z,76.00
2022-11-09T03:45:58.759Z,76.00
2022-11-09T03:46:30.235Z,75.90
2022-11-09T03:47:01.708Z,75.90
2022-11-09T03:47:33.180Z,76.00
2022-11-09T03:48:04.753Z,76.00
2022-11-09T03:48:36.261Z,76.00
2022-11-09T03:49:07.834Z,76.00
2022-11-09T03:49:39.334Z,76.00
2022-11-09T03:50:10.813Z,76.00
2022-11-09T03:50:42.289Z,76.00
2022-11-09T03:51:13.769Z,76.00
2022-11-09T03:51:45.235Z,76.00
2022-11-09T03:52:16.713Z,76.00
2022-11-09T03:52:48.173Z,76.00
2022-11-09T03:53:19.980Z,75.90
2022-11-09T03:53:51.681Z,76.00
2022-11-09T03:54:23.143Z,76.00
2022-11-09T03:54:54.630Z,76.00
2022-11-09T03:55:26.108Z,76.00
2022-11-09T03:55:57.579Z,76.00
2022-11-09T03:56:29.051Z,76.00
2022-11-09T03:57:00.522Z,76.00
2022-11-09T03:57:31.993Z,76.00
2022-11-09T03:58:03.486Z,76.10
2022-11-09T03:58:34.970Z,76.00
2022-11-09T03:59:06.453Z,76.10
2022-11-09T03:59:37.932Z,76.00
2022-11-09T04:00:09.453Z,76.00
2022-11-09T04:00:40.925Z,76.70
2022-11-09T04:01:12.431Z,76.10
2022-11-09T04:01:43.953Z,76.00
2022-11-09T04:02:15.523Z,76.00
2022-11-09T04:02:46.980Z,76.00
2022-11-09T04:03:18.772Z,76.10
2022-11-09T04:03:50.393Z,76.10
2022-11-09T04:04:21.867Z,76.10
2022-11-09T04:04:53.408Z,76.10
2022-11-09T04:05:24.884Z,76.10
2022-11-09T04:05:56.359Z,76.20
2022-11-09T04:06:27.925Z,76.10
2022-11-09T04:06:59.534Z,76.10
2022-11-09T04:07:31.077Z,76.10
2022-11-09T04:08:02.539Z,76.10
2022-11-09T04:08:34.011Z,76.10
2022-11-09T04:09:05.472Z,76.20
2022-11-09T04:09:36.944Z,76.20
2022-11-09T04:10:08.428Z,76.20
2022-11-09T04:10:39.914Z,76.30
2022-11-09T04:11:11.385Z,76.20
2022-11-09T04:11:42.848Z,76.20
2022-11-09T04:12:14.326Z,76.20
2022-11-09T04:12:45.799Z,76.20
2022-11-09T04:13:17.586Z,76.20
2022-11-09T04:13:49.350Z,76.20
2022-11-09T04:14:20.825Z,76.20
2022-11-09T04:14:52.293Z,76.10
2022-11-09T04:15:23.776Z,76.20
2022-11-09T04:15:55.245Z,76.10
2022-11-09T04:16:26.710Z,76.10
2022-11-09T04:16:58.171Z,76.10
2022-11-09T04:17:29.627Z,76.10
2022-11-09T04:18:01.098Z,76.10
2022-11-09T04:18:32.568Z,76.10
2022-11-09T04:19:04.038Z,76.00
2022-11-09T04:19:35.503Z,76.00
2022-11-09T04:20:06.977Z,76.00
2022-11-09T04:20:38.438Z,76.00
2022-11-09T04:21:09.915Z,76.10
2022-11-09T04:21:41.380Z,76.00
2022-11-09T04:22:12.873Z,76.00
2022-11-09T04:22:44.342Z,76.00
2022-11-09T04:23:15.802Z,76.10
2022-11-09T04:23:47.276Z,76.10
2022-11-09T04:24:18.744Z,76.10
2022-11-09T04:24:50.234Z,76.10
2022-11-09T04:25:21.709Z,76.10
2022-11-09T04:25:53.188Z,76.10
2022-11-09T04:26:24.665Z,76.00
2022-11-09T04:26:56.131Z,76.00
2022-11-09T04:27:27.616Z,76.00
2022-11-09T04:27:59.151Z,76.10
2022-11-09T04:28:30.638Z,76.00
2022-11-09T04:29:02.143Z,76.10
2022-11-09T04:29:33.607Z,76.10
2022-11-09T04:30:05.077Z,76.10
2022-11-09T04:30:36.550Z,76.10
2022-11-09T04:31:08.108Z,76.00
2022-11-09T04:31:39.592Z,76.00
2022-11-09T04:32:11.051Z,76.10
2022-11-09T04:32:42.523Z,76.00
2022-11-09T04:33:13.990Z,76.10
2022-11-09T04:33:45.501Z,76.00
2022-11-09T04:34:17.032Z,76.00
2022-11-09T04:34:48.501Z,76.10
2022-11-09T04:35:19.976Z,76.00
2022-11-09T04:35:51.435Z,76.00
2022-11-09T04:36:22.897Z,76.00
2022-11-09T04:36:54.408Z,76.00
2022-11-09T04:37:25.882Z,76.10
2022-11-09T04:37:57.374Z,76.70
2022-11-09T04:38:28.844Z,76.70
2022-11-09T04:39:00.323Z,76.00
2022-11-09T04:39:31.801Z,76.00
2022-11-09T04:40:03.281Z,76.00
2022-11-09T04:40:34.743Z,76.00
2022-11-09T04:41:06.234Z,76.00
2022-11-09T04:41:37.706Z,76.00
2022-11-09T04:42:09.167Z,76.10
2022-11-09T04:42:40.634Z,76.10
2022-11-09T04:43:12.101Z,76.00
2022-11-09T04:43:43.563Z,76.10
2022-11-09T04:44:15.032Z,76.10
2022-11-09T04:44:46.496Z,76.00
2022-11-09T04:45:17.955Z,76.10
2022-11-09T04:45:49.427Z,76.10
2022-11-09T04:46:20.893Z,76.10
2022-11-09T04:46:52.379Z,76.10
2022-11-09T04:47:23.840Z,76.10
2022-11-09T04:47:55.332Z,76.10
2022-11-09T04:48:26.805Z,76.10
2022-11-09T04:48:58.268Z,76.20
2022-11-09T04:49:29.731Z,76.10
2022-11-09T04:50:01.215Z,76.10
2022-11-09T04:50:32.682Z,76.10
2022-11-09T04:51:04.180Z,76.10
2022-11-09T04:51:35.635Z,76.10
2022-11-09T04:52:07.096Z,76.10
2022-11-09T04:52:38.578Z,76.20
2022-11-09T04:53:10.045Z,76.20
2022-11-09T04:53:41.508Z,76.20
2022-11-09T04:54:12.983Z,76.10
2022-11-09T04:54:44.473Z,76.20
2022-11-09T04:55:15.959Z,76.20
2022-11-09T04:55:47.419Z,76.20
2022-11-09T04:56:18.888Z,76.20
2022-11-09T04:56:50.364Z,76.20
2022-11-09T04:57:21.824Z,76.20
2022-11-09T04:57:53.291Z,76.20
2022-11-09T04:58:25.265Z,76.10
2022-11-09T04:58:56.793Z,76.20
2022-11-09T04:59:28.261Z,76.20
2022-11-09T04:59:59.835Z,76.10
2022-11-09T05:00:31.295Z,76.20
2022-11-09T05:01:02.753Z,76.20
2022-11-09T05:01:34.235Z,76.20
2022-11-09T05:02:05.713Z,76.20
2022-11-09T05:02:37.188Z,76.20
2022-11-09T05:03:08.675Z,76.20
2022-11-09T05:03:40.230Z,76.20
2022-11-09T05:04:11.832Z,76.20
2022-11-09T05:04:43.345Z,76.20
2022-11-09T05:05:14.806Z,76.20
2022-11-09T05:05:48.527Z,76.10
2022-11-09T05:06:20.217Z,76.20
2022-11-09T05:06:51.732Z,76.10
2022-11-09T05:07:23.243Z,76.10
2022-11-09T05:07:54.710Z,76.10
2022-11-09T05:08:26.194Z,76.10
2022-11-09T05:08:57.664Z,76.00
2022-11-09T05:09:29.188Z,76.10
2022-11-09T05:10:00.687Z,76.10
2022-11-09T05:10:32.146Z,76.10
2022-11-09T05:11:03.608Z,76.00
2022-11-09T05:11:35.077Z,76.10
2022-11-09T05:12:06.549Z,76.00
2022-11-09T05:12:40.294Z,76.00
2022-11-09T05:13:15.103Z,76.00
2022-11-09T05:13:46.582Z,76.00
2022-11-09T05:14:18.049Z,76.00
2022-11-09T05:14:49.511Z,75.90
2022-11-09T05:15:21.037Z,76.00
2022-11-09T05:15:52.545Z,75.90
2022-11-09T05:16:24.006Z,75.90
2022-11-09T05:16:55.481Z,75.90
2022-11-09T05:17:26.968Z,75.90
2022-11-09T05:17:58.434Z,75.90
2022-11-09T05:18:29.985Z,76.00
2022-11-09T05:19:01.465Z,76.00
2022-11-09T05:19:32.928Z,76.00
2022-11-09T05:20:04.390Z,76.00
2022-11-09T05:20:35.863Z,76.00
2022-11-09T05:21:07.334Z,76.00
2022-11-09T05:21:38.874Z,76.00
2022-11-09T05:22:10.353Z,76.10
2022-11-09T05:22:41.865Z,76.00
2022-11-09T05:23:13.345Z,76.00
2022-11-09T05:23:44.843Z,76.00
2022-11-09T05:24:16.317Z,76.00
2022-11-09T05:24:47.833Z,76.00
2022-11-09T05:25:19.401Z,76.00
2022-11-09T05:25:50.891Z,76.00
2022-11-09T05:26:22.369Z,76.00
2022-11-09T05:26:53.845Z,76.10
2022-11-09T05:27:25.316Z,76.10
2022-11-09T05:27:56.786Z,76.10
2022-11-09T05:28:28.255Z,76.00
2022-11-09T05:28:59.716Z,76.00
2022-11-09T05:29:31.176Z,76.00
2022-11-09T05:30:02.648Z,76.10
2022-11-09T05:30:34.125Z,76.10
2022-11-09T05:31:05.598Z,76.10
2022-11-09T05:31:37.119Z,76.20
2022-11-09T05:32:08.589Z,76.00
2022-11-09T05:32:40.074Z,76.10
2022-11-09T05:33:11.548Z,76.10
2022-11-09T05:33:43.025Z,76.10
2022-11-09T05:34:14.492Z,76.10
2022-11-09T05:34:45.992Z,76.10
2022-11-09T05:35:17.471Z,76.10
2022-11-09T05:35:48.951Z,76.10
2022-11-09T05:36:20.416Z,76.10
2022-11-09T05:36:51.882Z,76.20
2022-11-09T05:37:23.353Z,76.10
2022-11-09T05:37:54.855Z,76.10
2022-11-09T05:38:26.320Z,76.10
2022-11-09T05:38:57.782Z,76.20
2022-11-09T05:39:29.252Z,76.10
2022-11-09T05:40:00.711Z,76.10
2022-11-09T05:40:32.181Z,76.20
2022-11-09T05:41:03.659Z,76.10
2022-11-09T05:41:35.120Z,76.20
2022-11-09T05:42:06.583Z,76.20
2022-11-09T05:42:38.047Z,76.20
2022-11-09T05:43:09.530Z,76.10
2022-11-09T05:43:40.996Z,76.10
2022-11-09T05:44:12.455Z,76.20
2022-11-09T05:44:43.930Z,76.10
2022-11-09T05:45:40.782Z,76.10
2022-11-09T05:46:07.035Z,76.10
2022-11-09T05:46:38.551Z,76.10
2022-11-09T05:47:10.107Z,76.10
2022-11-09T05:47:41.678Z,76.10
2022-11-09T05:48:13.147Z,76.10
2022-11-09T05:48:44.619Z,76.10
2022-11-09T05:49:16.081Z,76.20
2022-11-09T05:49:47.555Z,76.10
2022-11-09T05:50:19.074Z,76.10
2022-11-09T05:50:50.591Z,76.20
2022-11-09T05:51:22.055Z,76.10
2022-11-09T05:51:53.531Z,76.00
2022-11-09T05:52:24.993Z,76.00
2022-11-09T05:52:56.465Z,76.00
2022-11-09T05:53:28.037Z,76.00
2022-11-09T05:53:59.532Z,76.00
2022-11-09T05:54:31.006Z,76.00
2022-11-09T05:55:02.466Z,76.00
2022-11-09T05:55:33.928Z,76.00
2022-11-09T05:56:05.404Z,76.00
2022-11-09T05:56:36.884Z,76.00
2022-11-09T05:57:08.445Z,76.00
2022-11-09T05:57:39.906Z,76.00
2022-11-09T05:58:11.376Z,76.00
2022-11-09T05:58:42.866Z,76.00
2022-11-09T05:59:14.364Z,76.00
2022-11-09T05:59:45.844Z,76.00
2022-11-09T06:00:17.362Z,75.90
2022-11-09T06:00:48.842Z,75.90
2022-11-09T06:01:20.309Z,76.00
2022-11-09T06:01:51.885Z,76.00
2022-11-09T06:02:23.473Z,76.00
2022-11-09T06:02:54.981Z,76.00
2022-11-09T06:03:26.443Z,76.00
2022-11-09T06:03:57.913Z,76.00
2022-11-09T06:04:29.371Z,75.90
2022-11-09T06:05:00.951Z,75.90
2022-11-09T06:05:32.434Z,75.90
2022-11-09T06:06:07.962Z,75.90
2022-11-09T06:06:40.276Z,75.90
2022-11-09T06:07:11.863Z,76.00
2022-11-09T06:07:43.389Z,75.90
2022-11-09T06:08:14.855Z,75.90
2022-11-09T06:08:46.311Z,76.00
2022-11-09T06:09:17.783Z,76.00
2022-11-09T06:09:49.256Z,76.00
2022-11-09T06:10:20.721Z,76.00
2022-11-09T06:10:52.194Z,76.00
2022-11-09T06:11:24.625Z,76.00
2022-11-09T06:11:56.212Z,76.00
2022-11-09T06:12:27.681Z,76.00
2022-11-09T06:12:59.140Z,76.10
2022-11-09T06:13:30.615Z,76.00
2022-11-09T06:14:02.087Z,76.00
2022-11-09T06:14:33.549Z,76.10
2022-11-09T06:15:05.079Z,76.00
2022-11-09T06:15:36.565Z,76.00
2022-11-09T06:16:08.033Z,76.00
2022-11-09T06:16:39.513Z,76.40
2022-11-09T06:17:10.984Z,76.00
2022-11-09T06:17:42.454Z,76.00
2022-11-09T06:18:13.921Z,76.10
2022-11-09T06:18:45.388Z,76.10
2022-11-09T06:19:16.866Z,76.00
2022-11-09T06:19:48.320Z,76.10
2022-11-09T06:20:19.784Z,76.10
2022-11-09T06:20:51.259Z,76.10
2022-11-09T06:21:22.723Z,76.10
2022-11-09T06:21:54.215Z,76.10
2022-11-09T06:22:25.675Z,76.10
2022-11-09T06:23:02.484Z,76.00
2022-11-09T06:23:34.810Z,76.10
2022-11-09T06:24:06.285Z,76.10
2022-11-09T06:24:37.764Z,76.00
2022-11-09T06:25:09.257Z,76.00
2022-11-09T06:25:40.728Z,76.10
2022-11-09T06:26:12.206Z,76.00
2022-11-09T06:26:43.672Z,76.00
2022-11-09T06:27:15.135Z,76.00
2022-11-09T06:27:46.613Z,76.00
2022-11-09T06:28:18.107Z,76.00
2022-11-09T06:28:49.583Z,76.00
2022-11-09T06:29:22.006Z,76.00
2022-11-09T06:29:53.499Z,76.00
2022-11-09T06:30:24.987Z,76.00
2022-11-09T06:30:56.456Z,76.00
2022-11-09T06:31:27.981Z,76.00
2022-11-09T06:31:59.463Z,76.00
2022-11-09T06:32:30.985Z,76.00
2022-11-09T06:33:02.456Z,76.00
2022-11-09T06:33:33.951Z,76.00
2022-11-09T06:34:05.569Z,76.00
2022-11-09T06:34:37.041Z,76.00
2022-11-09T06:35:08.508Z,76.20
2022-11-09T06:35:39.970Z,76.10
2022-11-09T06:36:11.463Z,76.10
2022-11-09T06:36:42.943Z,76.10
2022-11-09T06:37:14.411Z,76.10
2022-11-09T06:37:45.889Z,76.10
2022-11-09T06:38:17.355Z,76.10
2022-11-09T06:38:48.852Z,76.10
2022-11-09T06:39:20.329Z,76.20
2022-11-09T06:39:51.939Z,76.10
2022-11-09T06:40:23.443Z,76.10
2022-11-09T06:40:54.927Z,76.20
2022-11-09T06:41:26.453Z,76.20
2022-11-09T06:41:57.921Z,76.30
2022-11-09T06:42:29.457Z,76.20
2022-11-09T06:43:00.944Z,76.20
2022-11-09T06:43:32.412Z,76.20
2022-11-09T06:44:03.891Z,76.20
2022-11-09T06:44:35.367Z,76.20
2022-11-09T06:45:06.849Z,76.10
2022-11-09T06:45:38.320Z,76.10
2022-11-09T06:46:09.792Z,76.10
2022-11-09T06:46:41.261Z,76.20